sensor_id;sensor_type;location;lat;lon;timestamp;P1;durP1;ratioP1;P2;durP2;ratioP2
17235;SDS011;8734;59.272;17.780;2023-11-19T00:01:34;3.07;;;2.30;;
17235;SDS011;8734;59.272;17.780;2023-11-19T00:04:02;2.70;;;2.00;;
17235;SDS011;8734;59.272;17.780;2023-11-19T00:06:31;1.97;;;1.50;;
17235;SDS011;8734;59.272;17.780;2023-11-19T00:09:01;2.70;;;2.10;;
17235;SDS011;8734;59.272;17.780;2023-11-19T00:11:30;2.23;;;1.83;;
17235;SDS011;8734;59.272;17.780;2023-11-19T00:13:59;6.00;;;2.00;;
17235;SDS011;8734;59.272;17.780;2023-11-19T00:16:27;2.77;;;1.80;;
17235;SDS011;8734;59.272;17.780;2023-11-19T00:18:55;4.10;;;2.30;;
17235;SDS011;8734;59.272;17.780;2023-11-19T00:21:23;2.60;;;1.90;;
17235;SDS011;8734;59.272;17.780;2023-11-19T00:23:55;2.43;;;1.83;;
17235;SDS011;8734;59.272;17.780;2023-11-19T00:26:26;1.63;;;1.53;;
17235;SDS011;8734;59.272;17.780;2023-11-19T00:28:54;1.83;;;1.60;;
17235;SDS011;8734;59.272;17.780;2023-11-19T00:31:24;3.37;;;1.30;;
17235;SDS011;8734;59.272;17.780;2023-11-19T00:33:53;2.57;;;2.00;;
17235;SDS011;8734;59.272;17.780;2023-11-19T00:36:21;2.17;;;1.63;;
17235;SDS011;8734;59.272;17.780;2023-11-19T00:38:50;1.57;;;1.47;;
17235;SDS011;8734;59.272;17.780;2023-11-19T00:41:19;2.43;;;1.90;;
17235;SDS011;8734;59.272;17.780;2023-11-19T00:43:50;2.10;;;1.87;;
17235;SDS011;8734;59.272;17.780;2023-11-19T00:46:19;2.80;;;1.37;;
17235;SDS011;8734;59.272;17.780;2023-11-19T00:48:48;2.07;;;1.70;;
17235;SDS011;8734;59.272;17.780;2023-11-19T00:51:17;5.50;;;2.13;;
17235;SDS011;8734;59.272;17.780;2023-11-19T00:53:45;2.37;;;1.80;;
17235;SDS011;8734;59.272;17.780;2023-11-19T00:56:13;3.90;;;1.97;;
17235;SDS011;8734;59.272;17.780;2023-11-19T00:58:43;2.07;;;1.60;;
17235;SDS011;8734;59.272;17.780;2023-11-19T01:01:13;3.40;;;2.10;;
17235;SDS011;8734;59.272;17.780;2023-11-19T01:03:42;7.80;;;2.10;;
17235;SDS011;8734;59.272;17.780;2023-11-19T01:06:10;2.37;;;1.67;;
17235;SDS011;8734;59.272;17.780;2023-11-19T01:08:42;4.07;;;2.20;;
17235;SDS011;8734;59.272;17.780;2023-11-19T01:11:19;2.50;;;2.00;;
17235;SDS011;8734;59.272;17.780;2023-11-19T01:13:48;2.73;;;1.90;;
17235;SDS011;8734;59.272;17.780;2023-11-19T01:16:18;3.20;;;2.13;;
17235;SDS011;8734;59.272;17.780;2023-11-19T01:18:47;1.53;;;1.20;;
17235;SDS011;8734;59.272;17.780;2023-11-19T01:21:16;2.33;;;1.70;;
17235;SDS011;8734;59.272;17.780;2023-11-19T01:23:44;8.77;;;2.00;;
17235;SDS011;8734;59.272;17.780;2023-11-19T01:26:13;2.20;;;1.80;;
17235;SDS011;8734;59.272;17.780;2023-11-19T01:28:41;4.63;;;2.03;;
17235;SDS011;8734;59.272;17.780;2023-11-19T01:31:14;3.27;;;2.10;;
17235;SDS011;8734;59.272;17.780;2023-11-19T01:33:45;3.23;;;2.20;;
17235;SDS011;8734;59.272;17.780;2023-11-19T01:36:14;1.93;;;1.73;;
17235;SDS011;8734;59.272;17.780;2023-11-19T01:38:42;3.27;;;2.30;;
17235;SDS011;8734;59.272;17.780;2023-11-19T01:41:11;2.80;;;1.80;;
17235;SDS011;8734;59.272;17.780;2023-11-19T01:43:39;3.83;;;2.03;;
17235;SDS011;8734;59.272;17.780;2023-11-19T01:46:09;3.20;;;2.03;;
17235;SDS011;8734;59.272;17.780;2023-11-19T01:48:39;2.27;;;1.90;;
17235;SDS011;8734;59.272;17.780;2023-11-19T01:51:11;3.80;;;2.00;;
17235;SDS011;8734;59.272;17.780;2023-11-19T01:53:43;2.17;;;1.73;;
17235;SDS011;8734;59.272;17.780;2023-11-19T01:56:13;3.33;;;2.37;;
17235;SDS011;8734;59.272;17.780;2023-11-19T01:58:43;1.83;;;1.40;;
17235;SDS011;8734;59.272;17.780;2023-11-19T02:01:13;4.90;;;2.10;;
17235;SDS011;8734;59.272;17.780;2023-11-19T02:03:42;3.10;;;1.80;;
17235;SDS011;8734;59.272;17.780;2023-11-19T02:06:12;2.50;;;2.30;;
17235;SDS011;8734;59.272;17.780;2023-11-19T02:08:41;3.17;;;2.37;;
17235;SDS011;8734;59.272;17.780;2023-11-19T02:11:10;3.07;;;2.20;;
17235;SDS011;8734;59.272;17.780;2023-11-19T02:13:39;3.60;;;2.50;;
17235;SDS011;8734;59.272;17.780;2023-11-19T02:16:08;5.43;;;2.40;;
17235;SDS011;8734;59.272;17.780;2023-11-19T02:18:38;3.37;;;2.20;;
17235;SDS011;8734;59.272;17.780;2023-11-19T02:21:06;5.07;;;2.40;;
17235;SDS011;8734;59.272;17.780;2023-11-19T02:23:38;3.50;;;2.20;;
17235;SDS011;8734;59.272;17.780;2023-11-19T02:26:09;3.87;;;2.53;;
17235;SDS011;8734;59.272;17.780;2023-11-19T02:28:43;3.07;;;2.50;;
17235;SDS011;8734;59.272;17.780;2023-11-19T02:31:12;3.17;;;2.17;;
17235;SDS011;8734;59.272;17.780;2023-11-19T02:33:41;4.10;;;2.57;;
17235;SDS011;8734;59.272;17.780;2023-11-19T02:36:10;2.90;;;2.20;;
17235;SDS011;8734;59.272;17.780;2023-11-19T02:38:38;5.17;;;2.70;;
17235;SDS011;8734;59.272;17.780;2023-11-19T02:41:06;4.63;;;2.50;;
17235;SDS011;8734;59.272;17.780;2023-11-19T02:43:36;4.00;;;2.70;;
17235;SDS011;8734;59.272;17.780;2023-11-19T02:46:07;4.37;;;2.47;;
17235;SDS011;8734;59.272;17.780;2023-11-19T02:48:38;7.73;;;2.57;;
17235;SDS011;8734;59.272;17.780;2023-11-19T02:51:06;3.23;;;2.27;;
17235;SDS011;8734;59.272;17.780;2023-11-19T02:53:36;3.17;;;2.40;;
17235;SDS011;8734;59.272;17.780;2023-11-19T02:56:07;3.13;;;2.47;;
17235;SDS011;8734;59.272;17.780;2023-11-19T02:58:46;6.03;;;2.57;;
17235;SDS011;8734;59.272;17.780;2023-11-19T03:01:22;4.43;;;2.90;;
17235;SDS011;8734;59.272;17.780;2023-11-19T03:03:57;4.53;;;2.93;;
17235;SDS011;8734;59.272;17.780;2023-11-19T03:06:29;4.90;;;2.83;;
17235;SDS011;8734;59.272;17.780;2023-11-19T03:08:58;4.13;;;2.57;;
17235;SDS011;8734;59.272;17.780;2023-11-19T03:11:32;5.53;;;2.90;;
17235;SDS011;8734;59.272;17.780;2023-11-19T03:14:01;8.00;;;2.80;;
17235;SDS011;8734;59.272;17.780;2023-11-19T03:16:31;4.33;;;2.83;;
17235;SDS011;8734;59.272;17.780;2023-11-19T03:19:00;6.90;;;2.57;;
17235;SDS011;8734;59.272;17.780;2023-11-19T03:21:29;3.67;;;2.80;;
17235;SDS011;8734;59.272;17.780;2023-11-19T03:23:58;3.77;;;2.67;;
17235;SDS011;8734;59.272;17.780;2023-11-19T03:26:27;6.30;;;2.60;;
17235;SDS011;8734;59.272;17.780;2023-11-19T03:28:55;5.53;;;3.10;;
17235;SDS011;8734;59.272;17.780;2023-11-19T03:31:24;8.83;;;3.40;;
17235;SDS011;8734;59.272;17.780;2023-11-19T03:33:56;5.13;;;2.83;;
17235;SDS011;8734;59.272;17.780;2023-11-19T03:36:25;3.13;;;2.73;;
17235;SDS011;8734;59.272;17.780;2023-11-19T03:38:59;4.97;;;2.97;;
17235;SDS011;8734;59.272;17.780;2023-11-19T03:41:27;4.20;;;2.33;;
17235;SDS011;8734;59.272;17.780;2023-11-19T03:44:07;3.47;;;2.10;;
17235;SDS011;8734;59.272;17.780;2023-11-19T03:46:35;5.23;;;3.00;;
17235;SDS011;8734;59.272;17.780;2023-11-19T03:49:06;5.33;;;3.00;;
17235;SDS011;8734;59.272;17.780;2023-11-19T03:51:34;4.30;;;2.80;;
17235;SDS011;8734;59.272;17.780;2023-11-19T03:54:03;4.67;;;2.97;;
17235;SDS011;8734;59.272;17.780;2023-11-19T03:56:33;5.50;;;2.77;;
17235;SDS011;8734;59.272;17.780;2023-11-19T03:59:01;5.00;;;3.30;;
17235;SDS011;8734;59.272;17.780;2023-11-19T04:01:30;6.97;;;2.77;;
17235;SDS011;8734;59.272;17.780;2023-11-19T04:03:58;4.97;;;2.87;;
17235;SDS011;8734;59.272;17.780;2023-11-19T04:06:29;5.00;;;3.33;;
17235;SDS011;8734;59.272;17.780;2023-11-19T04:08:58;3.87;;;3.00;;
17235;SDS011;8734;59.272;17.780;2023-11-19T04:11:26;7.60;;;3.13;;
17235;SDS011;8734;59.272;17.780;2023-11-19T04:13:55;5.03;;;3.00;;
17235;SDS011;8734;59.272;17.780;2023-11-19T04:16:26;5.17;;;2.70;;
17235;SDS011;8734;59.272;17.780;2023-11-19T04:18:55;4.77;;;3.10;;
17235;SDS011;8734;59.272;17.780;2023-11-19T04:21:24;5.77;;;3.17;;
17235;SDS011;8734;59.272;17.780;2023-11-19T04:23:54;4.20;;;2.50;;
17235;SDS011;8734;59.272;17.780;2023-11-19T04:26:22;6.33;;;3.37;;
17235;SDS011;8734;59.272;17.780;2023-11-19T04:28:52;5.40;;;3.00;;
17235;SDS011;8734;59.272;17.780;2023-11-19T04:31:20;4.83;;;2.60;;
17235;SDS011;8734;59.272;17.780;2023-11-19T04:33:48;5.43;;;3.53;;
17235;SDS011;8734;59.272;17.780;2023-11-19T04:36:18;4.50;;;3.23;;
17235;SDS011;8734;59.272;17.780;2023-11-19T04:38:50;3.90;;;2.90;;
17235;SDS011;8734;59.272;17.780;2023-11-19T04:41:20;6.33;;;3.20;;
17235;SDS011;8734;59.272;17.780;2023-11-19T04:43:48;4.93;;;2.77;;
17235;SDS011;8734;59.272;17.780;2023-11-19T04:46:16;6.27;;;3.10;;
17235;SDS011;8734;59.272;17.780;2023-11-19T04:48:45;4.40;;;2.37;;
17235;SDS011;8734;59.272;17.780;2023-11-19T04:51:13;6.70;;;3.10;;
17235;SDS011;8734;59.272;17.780;2023-11-19T04:53:41;5.17;;;3.10;;
17235;SDS011;8734;59.272;17.780;2023-11-19T04:56:10;6.23;;;2.90;;
17235;SDS011;8734;59.272;17.780;2023-11-19T04:58:41;7.10;;;3.37;;
17235;SDS011;8734;59.272;17.780;2023-11-19T05:01:13;5.27;;;2.90;;
17235;SDS011;8734;59.272;17.780;2023-11-19T05:03:43;5.63;;;3.20;;
17235;SDS011;8734;59.272;17.780;2023-11-19T05:06:11;13.20;;;2.67;;
17235;SDS011;8734;59.272;17.780;2023-11-19T05:08:40;4.10;;;2.80;;
17235;SDS011;8734;59.272;17.780;2023-11-19T05:11:09;4.67;;;3.07;;
17235;SDS011;8734;59.272;17.780;2023-11-19T05:13:38;5.73;;;2.93;;
17235;SDS011;8734;59.272;17.780;2023-11-19T05:16:08;5.23;;;2.77;;
17235;SDS011;8734;59.272;17.780;2023-11-19T05:18:36;6.23;;;3.17;;
17235;SDS011;8734;59.272;17.780;2023-11-19T05:21:07;4.27;;;2.93;;
17235;SDS011;8734;59.272;17.780;2023-11-19T05:23:36;6.43;;;2.80;;
17235;SDS011;8734;59.272;17.780;2023-11-19T05:26:05;4.10;;;2.77;;
17235;SDS011;8734;59.272;17.780;2023-11-19T05:28:34;9.10;;;3.90;;
17235;SDS011;8734;59.272;17.780;2023-11-19T05:31:02;4.03;;;2.80;;
17235;SDS011;8734;59.272;17.780;2023-11-19T05:33:32;4.43;;;2.63;;
17235;SDS011;8734;59.272;17.780;2023-11-19T05:36:00;6.23;;;2.90;;
17235;SDS011;8734;59.272;17.780;2023-11-19T05:38:30;6.47;;;2.90;;
17235;SDS011;8734;59.272;17.780;2023-11-19T05:40:59;4.13;;;2.60;;
17235;SDS011;8734;59.272;17.780;2023-11-19T05:43:27;2.50;;;2.27;;
17235;SDS011;8734;59.272;17.780;2023-11-19T05:45:55;6.60;;;2.77;;
17235;SDS011;8734;59.272;17.780;2023-11-19T05:48:25;4.80;;;2.83;;
17235;SDS011;8734;59.272;17.780;2023-11-19T05:50:55;5.73;;;3.13;;
17235;SDS011;8734;59.272;17.780;2023-11-19T05:53:23;5.23;;;3.33;;
17235;SDS011;8734;59.272;17.780;2023-11-19T05:55:52;4.80;;;3.13;;
17235;SDS011;8734;59.272;17.780;2023-11-19T05:58:23;5.07;;;3.20;;
17235;SDS011;8734;59.272;17.780;2023-11-19T06:00:55;5.17;;;2.83;;
17235;SDS011;8734;59.272;17.780;2023-11-19T06:03:23;5.20;;;3.20;;
17235;SDS011;8734;59.272;17.780;2023-11-19T06:05:52;8.43;;;3.03;;
17235;SDS011;8734;59.272;17.780;2023-11-19T06:08:22;16.57;;;3.73;;
17235;SDS011;8734;59.272;17.780;2023-11-19T06:10:50;5.57;;;3.43;;
17235;SDS011;8734;59.272;17.780;2023-11-19T06:13:19;6.10;;;3.67;;
17235;SDS011;8734;59.272;17.780;2023-11-19T06:15:50;9.23;;;3.13;;
17235;SDS011;8734;59.272;17.780;2023-11-19T06:18:19;8.47;;;3.47;;
17235;SDS011;8734;59.272;17.780;2023-11-19T06:20:47;4.63;;;2.87;;
17235;SDS011;8734;59.272;17.780;2023-11-19T06:23:16;7.63;;;3.43;;
17235;SDS011;8734;59.272;17.780;2023-11-19T06:25:45;6.20;;;3.83;;
17235;SDS011;8734;59.272;17.780;2023-11-19T06:28:14;6.07;;;3.20;;
17235;SDS011;8734;59.272;17.780;2023-11-19T06:30:42;5.30;;;3.27;;
17235;SDS011;8734;59.272;17.780;2023-11-19T06:33:14;8.03;;;3.80;;
17235;SDS011;8734;59.272;17.780;2023-11-19T06:35:43;5.47;;;3.50;;
17235;SDS011;8734;59.272;17.780;2023-11-19T06:38:11;5.87;;;3.80;;
17235;SDS011;8734;59.272;17.780;2023-11-19T06:40:40;11.53;;;3.97;;
17235;SDS011;8734;59.272;17.780;2023-11-19T06:43:10;8.50;;;3.97;;
17235;SDS011;8734;59.272;17.780;2023-11-19T06:45:38;5.67;;;3.03;;
17235;SDS011;8734;59.272;17.780;2023-11-19T06:48:06;5.00;;;3.50;;
17235;SDS011;8734;59.272;17.780;2023-11-19T06:50:35;4.90;;;3.30;;
17235;SDS011;8734;59.272;17.780;2023-11-19T06:53:03;12.27;;;4.37;;
17235;SDS011;8734;59.272;17.780;2023-11-19T06:55:32;8.13;;;3.90;;
17235;SDS011;8734;59.272;17.780;2023-11-19T06:58:01;5.80;;;3.23;;
17235;SDS011;8734;59.272;17.780;2023-11-19T07:00:31;4.93;;;3.30;;
17235;SDS011;8734;59.272;17.780;2023-11-19T07:03:02;8.23;;;3.30;;
17235;SDS011;8734;59.272;17.780;2023-11-19T07:05:32;7.90;;;3.47;;
17235;SDS011;8734;59.272;17.780;2023-11-19T07:08:02;5.00;;;3.00;;
17235;SDS011;8734;59.272;17.780;2023-11-19T07:10:31;10.87;;;3.17;;
17235;SDS011;8734;59.272;17.780;2023-11-19T07:13:00;8.10;;;3.20;;
17235;SDS011;8734;59.272;17.780;2023-11-19T07:15:29;27.80;;;5.77;;
17235;SDS011;8734;59.272;17.780;2023-11-19T07:18:00;5.53;;;3.20;;
17235;SDS011;8734;59.272;17.780;2023-11-19T07:20:29;17.90;;;3.97;;
17235;SDS011;8734;59.272;17.780;2023-11-19T07:22:57;8.23;;;3.93;;
17235;SDS011;8734;59.272;17.780;2023-11-19T07:25:26;7.70;;;3.60;;
17235;SDS011;8734;59.272;17.780;2023-11-19T07:27:54;8.30;;;3.30;;
17235;SDS011;8734;59.272;17.780;2023-11-19T07:30:22;5.70;;;3.03;;
17235;SDS011;8734;59.272;17.780;2023-11-19T07:32:52;8.40;;;3.60;;
17235;SDS011;8734;59.272;17.780;2023-11-19T07:35:20;12.17;;;5.07;;
17235;SDS011;8734;59.272;17.780;2023-11-19T07:37:48;11.47;;;5.13;;
17235;SDS011;8734;59.272;17.780;2023-11-19T07:40:17;13.43;;;4.63;;
17235;SDS011;8734;59.272;17.780;2023-11-19T07:42:46;10.00;;;3.97;;
17235;SDS011;8734;59.272;17.780;2023-11-19T07:45:15;8.07;;;4.37;;
17235;SDS011;8734;59.272;17.780;2023-11-19T07:47:43;9.50;;;4.37;;
17235;SDS011;8734;59.272;17.780;2023-11-19T07:50:13;7.47;;;3.97;;
17235;SDS011;8734;59.272;17.780;2023-11-19T07:52:43;11.00;;;3.30;;
17235;SDS011;8734;59.272;17.780;2023-11-19T07:55:11;6.03;;;3.53;;
17235;SDS011;8734;59.272;17.780;2023-11-19T07:57:40;9.00;;;5.07;;
17235;SDS011;8734;59.272;17.780;2023-11-19T08:00:09;11.67;;;5.00;;
17235;SDS011;8734;59.272;17.780;2023-11-19T08:02:39;8.17;;;4.70;;
17235;SDS011;8734;59.272;17.780;2023-11-19T08:05:07;8.30;;;4.73;;
17235;SDS011;8734;59.272;17.780;2023-11-19T08:07:38;9.93;;;4.97;;
17235;SDS011;8734;59.272;17.780;2023-11-19T08:10:07;8.23;;;4.07;;
17235;SDS011;8734;59.272;17.780;2023-11-19T08:12:37;8.97;;;4.60;;
17235;SDS011;8734;59.272;17.780;2023-11-19T08:15:06;11.83;;;5.73;;
17235;SDS011;8734;59.272;17.780;2023-11-19T08:17:35;8.97;;;5.00;;
17235;SDS011;8734;59.272;17.780;2023-11-19T08:20:04;9.77;;;4.80;;
17235;SDS011;8734;59.272;17.780;2023-11-19T08:22:38;13.30;;;5.33;;
17235;SDS011;8734;59.272;17.780;2023-11-19T08:25:07;11.30;;;4.70;;
17235;SDS011;8734;59.272;17.780;2023-11-19T08:27:36;9.80;;;5.27;;
17235;SDS011;8734;59.272;17.780;2023-11-19T08:30:04;9.27;;;5.17;;
17235;SDS011;8734;59.272;17.780;2023-11-19T08:32:33;8.00;;;4.37;;
17235;SDS011;8734;59.272;17.780;2023-11-19T08:35:02;9.93;;;4.73;;
17235;SDS011;8734;59.272;17.780;2023-11-19T08:37:32;10.53;;;5.93;;
17235;SDS011;8734;59.272;17.780;2023-11-19T08:40:05;9.73;;;4.70;;
17235;SDS011;8734;59.272;17.780;2023-11-19T08:42:34;12.90;;;5.07;;
17235;SDS011;8734;59.272;17.780;2023-11-19T08:45:03;8.50;;;4.87;;
17235;SDS011;8734;59.272;17.780;2023-11-19T08:47:32;8.93;;;4.40;;
17235;SDS011;8734;59.272;17.780;2023-11-19T08:50:01;8.40;;;4.83;;
17235;SDS011;8734;59.272;17.780;2023-11-19T08:52:30;15.40;;;5.03;;
17235;SDS011;8734;59.272;17.780;2023-11-19T08:55:00;14.93;;;5.80;;
17235;SDS011;8734;59.272;17.780;2023-11-19T08:57:31;13.10;;;5.70;;
17235;SDS011;8734;59.272;17.780;2023-11-19T09:00:00;17.27;;;6.17;;
17235;SDS011;8734;59.272;17.780;2023-11-19T09:02:29;12.30;;;5.03;;
17235;SDS011;8734;59.272;17.780;2023-11-19T09:04:59;7.90;;;4.10;;
17235;SDS011;8734;59.272;17.780;2023-11-19T09:07:28;12.73;;;4.80;;
17235;SDS011;8734;59.272;17.780;2023-11-19T09:09:56;7.83;;;4.27;;
17235;SDS011;8734;59.272;17.780;2023-11-19T09:12:24;9.80;;;4.50;;
17235;SDS011;8734;59.272;17.780;2023-11-19T09:14:54;8.37;;;4.67;;
17235;SDS011;8734;59.272;17.780;2023-11-19T09:17:22;7.93;;;4.27;;
17235;SDS011;8734;59.272;17.780;2023-11-19T09:19:51;13.07;;;5.20;;
17235;SDS011;8734;59.272;17.780;2023-11-19T09:22:19;14.57;;;5.63;;
17235;SDS011;8734;59.272;17.780;2023-11-19T09:24:47;12.20;;;5.30;;
17235;SDS011;8734;59.272;17.780;2023-11-19T09:27:16;12.57;;;5.50;;
17235;SDS011;8734;59.272;17.780;2023-11-19T09:29:44;10.10;;;5.63;;
17235;SDS011;8734;59.272;17.780;2023-11-19T09:32:16;9.13;;;4.90;;
17235;SDS011;8734;59.272;17.780;2023-11-19T09:34:44;8.33;;;4.40;;
17235;SDS011;8734;59.272;17.780;2023-11-19T09:37:13;17.93;;;4.70;;
17235;SDS011;8734;59.272;17.780;2023-11-19T09:39:44;7.67;;;4.50;;
17235;SDS011;8734;59.272;17.780;2023-11-19T09:42:13;9.70;;;4.50;;
17235;SDS011;8734;59.272;17.780;2023-11-19T09:44:41;10.17;;;4.60;;
17235;SDS011;8734;59.272;17.780;2023-11-19T09:47:11;6.70;;;3.87;;
17235;SDS011;8734;59.272;17.780;2023-11-19T09:49:42;11.07;;;4.63;;
17235;SDS011;8734;59.272;17.780;2023-11-19T09:52:11;9.60;;;4.73;;
17235;SDS011;8734;59.272;17.780;2023-11-19T09:54:39;7.43;;;4.40;;
17235;SDS011;8734;59.272;17.780;2023-11-19T09:57:08;9.30;;;4.23;;
17235;SDS011;8734;59.272;17.780;2023-11-19T09:59:37;6.13;;;3.60;;
17235;SDS011;8734;59.272;17.780;2023-11-19T10:02:07;11.10;;;4.27;;
17235;SDS011;8734;59.272;17.780;2023-11-19T10:04:37;5.40;;;3.57;;
17235;SDS011;8734;59.272;17.780;2023-11-19T10:07:08;7.10;;;3.40;;
17235;SDS011;8734;59.272;17.780;2023-11-19T10:09:37;7.10;;;3.87;;
17235;SDS011;8734;59.272;17.780;2023-11-19T10:12:05;7.87;;;3.17;;
17235;SDS011;8734;59.272;17.780;2023-11-19T10:14:34;7.10;;;3.63;;
17235;SDS011;8734;59.272;17.780;2023-11-19T10:17:06;9.10;;;4.10;;
17235;SDS011;8734;59.272;17.780;2023-11-19T10:19:35;6.83;;;3.73;;
17235;SDS011;8734;59.272;17.780;2023-11-19T10:22:04;9.93;;;3.67;;
17235;SDS011;8734;59.272;17.780;2023-11-19T10:24:34;6.23;;;3.00;;
17235;SDS011;8734;59.272;17.780;2023-11-19T10:27:08;4.47;;;2.93;;
17235;SDS011;8734;59.272;17.780;2023-11-19T10:29:37;6.70;;;2.83;;
17235;SDS011;8734;59.272;17.780;2023-11-19T10:32:05;8.77;;;3.20;;
17235;SDS011;8734;59.272;17.780;2023-11-19T10:34:52;5.47;;;3.40;;
17235;SDS011;8734;59.272;17.780;2023-11-19T10:37:31;5.20;;;2.83;;
17235;SDS011;8734;59.272;17.780;2023-11-19T10:40:04;6.23;;;2.90;;
17235;SDS011;8734;59.272;17.780;2023-11-19T10:42:33;5.93;;;2.80;;
17235;SDS011;8734;59.272;17.780;2023-11-19T10:45:01;8.07;;;3.27;;
17235;SDS011;8734;59.272;17.780;2023-11-19T10:47:29;8.73;;;2.97;;
17235;SDS011;8734;59.272;17.780;2023-11-19T10:50:04;6.40;;;3.20;;
17235;SDS011;8734;59.272;17.780;2023-11-19T10:52:33;5.33;;;3.17;;
17235;SDS011;8734;59.272;17.780;2023-11-19T10:55:04;5.80;;;3.30;;
17235;SDS011;8734;59.272;17.780;2023-11-19T10:57:36;6.90;;;3.27;;
17235;SDS011;8734;59.272;17.780;2023-11-19T11:00:07;6.73;;;2.87;;
17235;SDS011;8734;59.272;17.780;2023-11-19T11:02:40;15.13;;;3.50;;
17235;SDS011;8734;59.272;17.780;2023-11-19T11:05:11;9.00;;;3.33;;
17235;SDS011;8734;59.272;17.780;2023-11-19T11:07:42;7.83;;;2.97;;
17235;SDS011;8734;59.272;17.780;2023-11-19T11:10:14;6.43;;;3.10;;
17235;SDS011;8734;59.272;17.780;2023-11-19T11:12:44;7.73;;;3.70;;
17235;SDS011;8734;59.272;17.780;2023-11-19T11:15:16;8.83;;;3.50;;
17235;SDS011;8734;59.272;17.780;2023-11-19T11:17:47;9.00;;;3.87;;
17235;SDS011;8734;59.272;17.780;2023-11-19T11:20:17;6.83;;;3.60;;
17235;SDS011;8734;59.272;17.780;2023-11-19T11:22:55;6.50;;;3.30;;
17235;SDS011;8734;59.272;17.780;2023-11-19T11:25:35;8.43;;;3.63;;
17235;SDS011;8734;59.272;17.780;2023-11-19T11:28:16;7.43;;;3.70;;
17235;SDS011;8734;59.272;17.780;2023-11-19T11:30:59;5.90;;;3.30;;
17235;SDS011;8734;59.272;17.780;2023-11-19T11:34:02;6.80;;;3.60;;
17235;SDS011;8734;59.272;17.780;2023-11-19T11:36:49;10.43;;;3.97;;
17235;SDS011;8734;59.272;17.780;2023-11-19T11:39:25;15.23;;;3.93;;
17235;SDS011;8734;59.272;17.780;2023-11-19T11:45:01;10.07;;;4.60;;
17235;SDS011;8734;59.272;17.780;2023-11-19T11:50:35;8.60;;;4.33;;
17235;SDS011;8734;59.272;17.780;2023-11-19T11:53:16;14.33;;;4.20;;
17235;SDS011;8734;59.272;17.780;2023-11-19T11:55:54;11.90;;;3.90;;
17235;SDS011;8734;59.272;17.780;2023-11-19T11:58:28;11.10;;;3.73;;
17235;SDS011;8734;59.272;17.780;2023-11-19T12:00:59;11.60;;;4.43;;
17235;SDS011;8734;59.272;17.780;2023-11-19T12:03:30;25.23;;;4.47;;
17235;SDS011;8734;59.272;17.780;2023-11-19T12:05:59;11.17;;;4.43;;
17235;SDS011;8734;59.272;17.780;2023-11-19T12:08:28;11.30;;;3.80;;
17235;SDS011;8734;59.272;17.780;2023-11-19T12:10:58;9.37;;;4.20;;
17235;SDS011;8734;59.272;17.780;2023-11-19T12:13:46;10.53;;;4.03;;
17235;SDS011;8734;59.272;17.780;2023-11-19T12:16:22;10.13;;;3.60;;
17235;SDS011;8734;59.272;17.780;2023-11-19T12:18:50;15.40;;;4.37;;
17235;SDS011;8734;59.272;17.780;2023-11-19T12:21:27;16.70;;;4.83;;
17235;SDS011;8734;59.272;17.780;2023-11-19T12:23:57;6.80;;;4.17;;
17235;SDS011;8734;59.272;17.780;2023-11-19T12:26:31;21.47;;;4.63;;
17235;SDS011;8734;59.272;17.780;2023-11-19T12:29:03;12.53;;;4.60;;
17235;SDS011;8734;59.272;17.780;2023-11-19T12:31:35;11.87;;;4.80;;
17235;SDS011;8734;59.272;17.780;2023-11-19T12:34:09;12.87;;;4.30;;
17235;SDS011;8734;59.272;17.780;2023-11-19T12:36:40;22.47;;;4.27;;
17235;SDS011;8734;59.272;17.780;2023-11-19T12:39:09;12.43;;;4.57;;
17235;SDS011;8734;59.272;17.780;2023-11-19T12:41:50;12.97;;;4.87;;
17235;SDS011;8734;59.272;17.780;2023-11-19T12:44:21;12.23;;;4.13;;
17235;SDS011;8734;59.272;17.780;2023-11-19T12:46:59;13.53;;;3.97;;
17235;SDS011;8734;59.272;17.780;2023-11-19T12:49:33;11.83;;;4.37;;
17235;SDS011;8734;59.272;17.780;2023-11-19T12:52:02;12.77;;;4.20;;
17235;SDS011;8734;59.272;17.780;2023-11-19T12:54:39;10.03;;;4.83;;
17235;SDS011;8734;59.272;17.780;2023-11-19T12:57:07;15.20;;;4.70;;
17235;SDS011;8734;59.272;17.780;2023-11-19T12:59:37;9.67;;;4.17;;
17235;SDS011;8734;59.272;17.780;2023-11-19T13:02:05;26.23;;;4.90;;
17235;SDS011;8734;59.272;17.780;2023-11-19T13:04:34;11.30;;;4.23;;
17235;SDS011;8734;59.272;17.780;2023-11-19T13:07:02;7.80;;;3.87;;
17235;SDS011;8734;59.272;17.780;2023-11-19T13:09:32;20.40;;;4.50;;
17235;SDS011;8734;59.272;17.780;2023-11-19T13:12:11;11.43;;;4.77;;
17235;SDS011;8734;59.272;17.780;2023-11-19T13:14:42;9.13;;;4.60;;
17235;SDS011;8734;59.272;17.780;2023-11-19T13:17:15;11.93;;;4.63;;
17235;SDS011;8734;59.272;17.780;2023-11-19T13:19:43;8.23;;;3.87;;
17235;SDS011;8734;59.272;17.780;2023-11-19T13:22:14;10.70;;;4.80;;
17235;SDS011;8734;59.272;17.780;2023-11-19T13:24:42;9.33;;;4.60;;
17235;SDS011;8734;59.272;17.780;2023-11-19T13:27:10;13.57;;;5.17;;
17235;SDS011;8734;59.272;17.780;2023-11-19T13:29:38;8.43;;;3.80;;
17235;SDS011;8734;59.272;17.780;2023-11-19T13:32:08;7.30;;;3.90;;
17235;SDS011;8734;59.272;17.780;2023-11-19T13:34:36;11.77;;;4.30;;
17235;SDS011;8734;59.272;17.780;2023-11-19T13:37:05;9.20;;;4.43;;
17235;SDS011;8734;59.272;17.780;2023-11-19T13:39:34;14.00;;;4.30;;
17235;SDS011;8734;59.272;17.780;2023-11-19T13:42:03;12.30;;;4.30;;
17235;SDS011;8734;59.272;17.780;2023-11-19T13:44:34;16.67;;;4.30;;
17235;SDS011;8734;59.272;17.780;2023-11-19T13:47:02;15.37;;;4.43;;
17235;SDS011;8734;59.272;17.780;2023-11-19T13:49:32;8.40;;;4.03;;
17235;SDS011;8734;59.272;17.780;2023-11-19T13:52:00;7.97;;;3.60;;
17235;SDS011;8734;59.272;17.780;2023-11-19T13:54:28;8.93;;;3.80;;
17235;SDS011;8734;59.272;17.780;2023-11-19T13:56:57;11.67;;;4.27;;
17235;SDS011;8734;59.272;17.780;2023-11-19T13:59:25;14.43;;;3.90;;
17235;SDS011;8734;59.272;17.780;2023-11-19T14:01:53;8.37;;;4.20;;
17235;SDS011;8734;59.272;17.780;2023-11-19T14:04:21;10.30;;;4.10;;
17235;SDS011;8734;59.272;17.780;2023-11-19T14:06:51;7.67;;;3.83;;
17235;SDS011;8734;59.272;17.780;2023-11-19T14:09:21;11.57;;;3.50;;
17235;SDS011;8734;59.272;17.780;2023-11-19T14:11:49;7.63;;;3.70;;
17235;SDS011;8734;59.272;17.780;2023-11-19T14:14:18;18.67;;;4.10;;
17235;SDS011;8734;59.272;17.780;2023-11-19T14:16:46;7.13;;;3.70;;
17235;SDS011;8734;59.272;17.780;2023-11-19T14:19:14;13.63;;;3.87;;
17235;SDS011;8734;59.272;17.780;2023-11-19T14:21:43;7.70;;;3.83;;
17235;SDS011;8734;59.272;17.780;2023-11-19T14:24:15;16.87;;;4.20;;
17235;SDS011;8734;59.272;17.780;2023-11-19T14:26:45;8.80;;;3.90;;
17235;SDS011;8734;59.272;17.780;2023-11-19T14:29:16;8.83;;;3.47;;
17235;SDS011;8734;59.272;17.780;2023-11-19T14:31:44;8.27;;;3.70;;
17235;SDS011;8734;59.272;17.780;2023-11-19T14:34:13;7.00;;;3.50;;
17235;SDS011;8734;59.272;17.780;2023-11-19T14:36:41;17.83;;;4.20;;
17235;SDS011;8734;59.272;17.780;2023-11-19T14:39:09;7.77;;;3.93;;
17235;SDS011;8734;59.272;17.780;2023-11-19T14:41:39;7.30;;;3.93;;
17235;SDS011;8734;59.272;17.780;2023-11-19T14:44:07;6.87;;;3.97;;
17235;SDS011;8734;59.272;17.780;2023-11-19T14:46:36;8.50;;;3.50;;
17235;SDS011;8734;59.272;17.780;2023-11-19T14:49:05;5.67;;;3.27;;
17235;SDS011;8734;59.272;17.780;2023-11-19T14:51:35;14.07;;;4.00;;
17235;SDS011;8734;59.272;17.780;2023-11-19T14:54:04;9.83;;;4.23;;
17235;SDS011;8734;59.272;17.780;2023-11-19T14:56:32;11.77;;;4.50;;
17235;SDS011;8734;59.272;17.780;2023-11-19T14:59:02;10.13;;;4.40;;
17235;SDS011;8734;59.272;17.780;2023-11-19T15:01:30;17.10;;;5.13;;
17235;SDS011;8734;59.272;17.780;2023-11-19T15:03:59;12.30;;;3.83;;
17235;SDS011;8734;59.272;17.780;2023-11-19T15:06:31;6.77;;;3.47;;
17235;SDS011;8734;59.272;17.780;2023-11-19T15:09:00;13.07;;;4.60;;